Time;durP1;ratioP1;P1;durP2;ratioP2;P2;SDS_P1;SDS_P2;PMS_P1;PMS_P2;Temp;Humidity;BMP_temperature;BMP_pressure;BME280_temperature;BME280_humidity;BME280_pressure;Samples;Min_cycle;Max_cycle;Signal;HPM_P1;HPM_P2
2022/11/12 00:00:24;;;;;;;40.95;9.23;;;9.50;99.90;;;;;;6187770;28;20529;-84
2022/11/12 00:03:26;;;;;;;73.43;10.15;;;9.40;99.90;;;;;;6189802;28;20051;-84
2022/11/12 00:06:28;;;;;;;34.45;8.45;;;9.20;99.90;;;;;;6192484;28;20043;-84
2022/11/12 00:09:31;;;;;;;42.28;8.82;;;9.20;99.90;;;;;;6188695;28;20057;-84
2022/11/12 00:12:33;;;;;;;70.28;10.45;;;9.10;99.90;;;;;;6190185;28;20042;-84
2022/11/12 00:15:35;;;;;;;50.83;9.93;;;9.20;99.90;;;;;;6189009;28;20334;-84
2022/11/12 00:18:36;;;;;;;39.05;10.70;;;9.30;99.90;;;;;;6189557;28;20051;-84
2022/11/12 00:21:38;;;;;;;39.78;9.52;;;9.30;99.90;;;;;;6189333;28;20046;-84
2022/11/12 00:24:41;;;;;;;43.53;11.30;;;9.40;99.90;;;;;;6172259;28;20047;-84
2022/11/12 00:27:43;;;;;;;47.97;11.75;;;9.40;99.90;;;;;;6166727;28;20049;-84
2022/11/12 00:30:44;;;;;;;41.88;9.75;;;9.40;99.90;;;;;;6167092;29;20062;-84
2022/11/12 00:33:46;;;;;;;44.90;10.27;;;9.40;99.90;;;;;;6167108;28;20055;-84
2022/11/12 00:36:48;;;;;;;53.78;11.27;;;9.40;99.90;;;;;;6166944;28;20403;-83
2022/11/12 00:39:51;;;;;;;44.03;9.98;;;9.50;99.90;;;;;;6166668;28;20417;-84
2022/11/12 00:42:53;;;;;;;70.72;12.95;;;9.50;99.90;;;;;;6167399;29;20055;-84
2022/11/12 00:45:55;;;;;;;61.53;10.93;;;9.50;99.90;;;;;;6167137;28;20047;-84
2022/11/12 00:48:57;;;;;;;54.17;10.23;;;9.50;99.90;;;;;;6166516;28;20057;-84
2022/11/12 00:51:58;;;;;;;31.50;9.75;;;9.50;99.90;;;;;;6165438;28;20053;-84
2022/11/12 00:55:01;;;;;;;36.13;9.90;;;9.60;99.90;;;;;;6164082;28;20505;-84
2022/11/12 00:58:03;;;;;;;41.70;10.05;;;9.60;99.90;;;;;;6163202;28;20051;-84
2022/11/12 01:01:07;;;;;;;35.00;10.77;;;9.60;99.90;;;;;;6164295;28;20058;-84
2022/11/12 01:04:09;;;;;;;37.90;10.52;;;9.70;99.90;;;;;;6164160;28;20615;-84
2022/11/12 01:07:11;;;;;;;39.42;10.50;;;9.70;99.90;;;;;;6164400;28;20057;-83
2022/11/12 01:10:14;;;;;;;47.03;10.70;;;9.70;99.90;;;;;;6162523;28;20054;-84
2022/11/12 01:13:16;;;;;;;47.20;10.05;;;9.70;99.90;;;;;;6167048;28;20042;-83
2022/11/12 01:16:20;;;;;;;48.10;9.77;;;9.60;99.90;;;;;;6184523;28;20042;-83
2022/11/12 01:19:21;;;;;;;34.42;9.25;;;9.50;99.90;;;;;;6203007;28;20050;-84
2022/11/12 01:22:23;;;;;;;41.58;9.63;;;9.50;99.90;;;;;;6209292;28;20385;-84
2022/11/12 01:25:26;;;;;;;32.38;8.82;;;9.50;99.90;;;;;;6189230;28;20049;-84
2022/11/12 01:28:29;;;;;;;48.45;9.23;;;9.60;99.90;;;;;;6183288;28;20047;-83
2022/11/12 01:31:32;;;;;;;32.95;9.10;;;9.70;99.90;;;;;;6192441;28;20057;-84
2022/11/12 01:34:34;;;;;;;35.28;8.48;;;9.60;99.90;;;;;;6212571;28;20050;-84
2022/11/12 01:37:36;;;;;;;31.27;9.55;;;9.70;99.90;;;;;;6209734;28;20065;-84
2022/11/12 01:40:39;;;;;;;46.47;10.48;;;9.70;99.90;;;;;;6211503;28;20046;-84
2022/11/12 01:43:41;;;;;;;29.40;8.95;;;9.70;99.90;;;;;;6221144;28;20034;-83
2022/11/12 01:46:55;;;;;;;28.83;8.90;;;9.70;99.90;;;;;;6251288;23;20057;-84
2022/11/12 01:49:59;;;;;;;41.72;11.68;;;9.70;99.90;;;;;;6160934;28;20061;-85
2022/11/12 01:53:05;;;;;;;47.58;10.45;;;9.70;99.90;;;;;;6160136;28;20604;-85
2022/11/12 01:56:08;;;;;;;30.45;8.70;;;9.80;99.90;;;;;;6159691;28;20051;-86
2022/11/12 01:59:16;;;;;;;38.20;8.57;;;9.80;99.90;;;;;;6158597;29;20428;-87
2022/11/12 02:02:18;;;;;;;32.40;8.93;;;9.80;99.90;;;;;;6159814;29;20051;-87
2022/11/12 02:05:22;;;;;;;42.25;9.77;;;9.70;99.90;;;;;;6159583;28;20057;-85
2022/11/12 02:08:25;;;;;;;22.50;8.15;;;9.70;99.90;;;;;;6158736;28;20058;-85
2022/11/12 02:11:28;;;;;;;36.22;8.70;;;9.90;99.90;;;;;;6165786;28;20041;-84
2022/11/12 02:14:31;;;;;;;29.50;8.77;;;9.80;99.90;;;;;;6179624;28;20039;-84
2022/11/12 02:17:33;;;;;;;37.53;8.60;;;9.80;99.90;;;;;;6166380;28;20421;-85
2022/11/12 02:20:36;;;;;;;22.08;8.25;;;9.80;99.90;;;;;;6159862;28;20047;-85
2022/11/12 02:23:39;;;;;;;28.08;8.30;;;9.90;99.90;;;;;;6159759;28;20055;-85
2022/11/12 02:26:43;;;;;;;39.80;8.15;;;9.90;99.90;;;;;;6158871;29;20055;-84
2022/11/12 02:29:46;;;;;;;29.00;8.20;;;9.90;99.90;;;;;;6158891;28;20043;-85
2022/11/12 02:32:47;;;;;;;37.78;7.70;;;9.90;99.90;;;;;;6163162;28;20051;-85
2022/11/12 02:35:49;;;;;;;34.25;6.85;;;9.80;99.90;;;;;;6163489;28;20055;-85
2022/11/12 02:38:52;;;;;;;29.92;7.80;;;9.80;99.90;;;;;;6163897;29;20059;-85
2022/11/12 02:41:54;;;;;;;21.73;6.50;;;9.80;99.90;;;;;;6164198;28;20130;-85
2022/11/12 02:44:55;;;;;;;25.92;7.10;;;9.90;99.90;;;;;;6162565;28;20058;-85
2022/11/12 02:47:57;;;;;;;26.60;6.60;;;10.00;99.90;;;;;;6162148;28;20047;-85
2022/11/12 02:50:59;;;;;;;24.27;6.45;;;10.10;99.90;;;;;;6162203;29;20055;-86
2022/11/12 02:54:02;;;;;;;19.88;6.47;;;10.10;99.90;;;;;;6162352;28;20051;-84
2022/11/12 02:57:04;;;;;;;31.88;7.15;;;10.10;99.90;;;;;;6161738;28;20420;-84
2022/11/12 03:00:08;;;;;;;21.13;5.68;;;10.00;99.90;;;;;;6160799;28;20449;-86
2022/11/12 03:03:10;;;;;;;20.27;6.43;;;10.00;99.90;;;;;;6162184;28;20057;-84
2022/11/12 03:06:11;;;;;;;24.90;7.40;;;9.90;99.90;;;;;;6160013;28;20043;-86
2022/11/12 03:09:14;;;;;;;18.58;5.75;;;10.00;99.90;;;;;;6159619;28;20047;-86
2022/11/12 03:12:16;;;;;;;17.80;6.22;;;9.90;99.90;;;;;;6160531;28;20047;-85
2022/11/12 03:15:18;;;;;;;31.75;7.45;;;9.90;99.90;;;;;;6160848;28;20067;-85
2022/11/12 03:18:20;;;;;;;24.13;7.63;;;9.90;99.90;;;;;;6160538;29;20055;-84
2022/11/12 03:21:22;;;;;;;23.30;7.10;;;10.00;99.90;;;;;;6159538;28;20051;-86
2022/11/12 03:24:25;;;;;;;22.15;6.93;;;10.00;99.90;;;;;;6161961;28;20058;-85
2022/11/12 03:27:26;;;;;;;23.08;7.72;;;10.00;99.90;;;;;;6159640;28;20058;-86
2022/11/12 03:30:30;;;;;;;47.08;9.45;;;10.10;99.90;;;;;;6163271;29;20481;-85
2022/11/12 03:33:31;;;;;;;44.47;8.43;;;10.10;99.90;;;;;;6161103;28;20054;-84
2022/11/12 03:36:33;;;;;;;26.48;6.95;;;9.90;99.90;;;;;;6160837;28;20059;-86
2022/11/12 03:39:36;;;;;;;21.08;6.57;;;9.80;99.90;;;;;;6160726;28;20055;-84
2022/11/12 03:42:38;;;;;;;40.38;8.18;;;9.70;99.90;;;;;;6157626;28;20062;-84
2022/11/12 03:45:40;;;;;;;21.75;6.75;;;9.70;99.90;;;;;;6159353;28;20415;-84
2022/11/12 03:48:41;;;;;;;16.02;5.97;;;9.60;99.90;;;;;;6159154;28;20047;-84
2022/11/12 03:51:43;;;;;;;27.38;7.32;;;9.70;99.90;;;;;;6159947;28;20094;-85
2022/11/12 03:54:46;;;;;;;23.25;6.82;;;9.70;99.90;;;;;;6159204;29;20051;-84
2022/11/12 03:57:49;;;;;;;14.02;6.82;;;9.70;99.90;;;;;;6156994;28;20665;-85
2022/11/12 04:00:51;;;;;;;25.27;7.00;;;9.70;99.90;;;;;;6158087;28;20517;-84
2022/11/12 04:03:53;;;;;;;23.55;6.28;;;9.80;99.90;;;;;;6157757;28;20051;-84
2022/11/12 04:10:15;;;;;;;24.73;6.90;;;9.80;99.90;;;;;;6157839;28;20043;-84
2022/11/12 04:13:29;;;;;;;21.42;6.97;;;9.80;99.90;;;;;;6158402;28;20112;-84
2022/11/12 04:23:22;;;;;;;18.80;6.60;;;9.80;99.90;;;;;;6138667;28;20079;-85
2022/11/12 04:26:24;;;;;;;30.35;6.90;;;9.70;99.90;;;;;;6157580;28;20051;-86
2022/11/12 04:32:48;;;;;;;36.78;7.90;;;9.90;99.90;;;;;;6158545;28;20126;-86
2022/11/12 04:35:50;;;;;;;26.40;7.65;;;9.90;99.90;;;;;;6158234;28;20057;-84
2022/11/12 04:38:52;;;;;;;21.08;6.38;;;9.80;99.90;;;;;;6157909;29;20071;-85
2022/11/12 04:45:14;;;;;;;17.55;6.10;;;9.50;99.90;;;;;;6158186;28;20432;-85
2022/11/12 04:48:16;;;;;;;12.23;6.28;;;9.60;99.90;;;;;;6158295;28;20047;-86
2022/11/12 04:54:39;;;;;;;15.52;5.38;;;9.50;99.90;;;;;;6133098;28;20055;-85
2022/11/12 04:57:42;;;;;;;29.52;7.35;;;9.40;99.90;;;;;;6158051;28;20059;-84
2022/11/12 05:00:44;;;;;;;30.20;7.30;;;9.30;99.90;;;;;;6157790;28;20047;-86
2022/11/12 05:03:45;;;;;;;19.02;5.82;;;9.30;99.90;;;;;;6158741;28;20087;-84
2022/11/12 05:06:53;;;;;;;28.23;7.38;;;9.20;99.90;;;;;;6158528;29;20084;-84
2022/11/12 05:09:55;;;;;;;24.45;6.18;;;9.10;99.90;;;;;;6157573;28;20133;-86
2022/11/12 05:12:58;;;;;;;23.08;7.00;;;9.00;99.90;;;;;;6157579;28;20051;-85
2022/11/12 05:16:00;;;;;;;15.05;5.80;;;9.00;99.90;;;;;;6157770;28;20058;-86
2022/11/12 05:19:01;;;;;;;29.85;6.40;;;9.10;99.90;;;;;;6157871;29;20051;-85
2022/11/12 05:22:06;;;;;;;24.65;6.60;;;9.20;99.90;;;;;;6158138;28;20493;-86
2022/11/12 05:25:08;;;;;;;34.97;7.65;;;9.30;99.90;;;;;;6157262;28;20047;-84
2022/11/12 05:28:11;;;;;;;31.98;6.30;;;9.40;99.90;;;;;;6156486;28;20437;-85
2022/11/12 05:31:13;;;;;;;27.10;6.50;;;9.40;99.90;;;;;;6134709;29;20390;-86
2022/11/12 05:34:15;;;;;;;16.70;7.07;;;9.50;99.90;;;;;;6134460;28;20051;-85
2022/11/12 05:37:16;;;;;;;15.68;6.20;;;9.60;99.90;;;;;;6170565;28;20043;-85
2022/11/12 05:40:18;;;;;;;21.17;7.07;;;9.70;99.90;;;;;;6182376;28;20058;-86
2022/11/12 05:43:21;;;;;;;25.67;5.57;;;9.70;99.90;;;;;;6181333;28;20416;-85
2022/11/12 05:46:23;;;;;;;24.15;6.22;;;9.70;99.90;;;;;;6181682;28;20051;-85
2022/11/12 05:49:25;;;;;;;16.10;6.13;;;9.60;99.90;;;;;;6181973;28;20054;-84
2022/11/12 05:52:26;;;;;;;13.35;5.50;;;9.50;99.90;;;;;;6181773;28;20054;-86
2022/11/12 05:55:28;;;;;;;10.93;4.90;;;9.60;99.90;;;;;;6181360;28;20051;-85
2022/11/12 05:58:31;;;;;;;16.67;6.47;;;9.70;99.90;;;;;;6180380;28;20057;-84
2022/11/12 06:01:34;;;;;;;20.58;6.45;;;9.70;99.90;;;;;;6180907;28;20436;-86
2022/11/12 06:04:36;;;;;;;22.67;7.13;;;9.60;99.90;;;;;;6180700;28;20050;-85
2022/11/12 06:07:38;;;;;;;18.23;6.20;;;9.50;99.90;;;;;;6201831;28;20191;-83
2022/11/12 06:10:40;;;;;;;20.73;6.25;;;9.40;99.90;;;;;;6205850;28;20047;-84
2022/11/12 06:13:43;;;;;;;21.45;7.25;;;9.30;99.90;;;;;;6202268;28;20054;-84
2022/11/12 06:16:44;;;;;;;16.83;6.68;;;9.20;99.90;;;;;;6199836;28;20053;-84
2022/11/12 06:19:46;;;;;;;19.02;6.10;;;9.10;99.90;;;;;;6190826;28;20111;-83
2022/11/12 06:22:48;;;;;;;13.48;5.05;;;9.10;99.90;;;;;;6190698;28;20055;-84
2022/11/12 06:25:49;;;;;;;20.75;5.32;;;9.10;99.90;;;;;;6190039;28;20050;-84
2022/11/12 06:28:53;;;;;;;20.30;7.82;;;9.10;99.90;;;;;;6179711;28;20303;-84
2022/11/12 06:31:55;;;;;;;19.38;7.15;;;9.10;99.90;;;;;;6157669;28;20066;-83
2022/11/12 06:34:57;;;;;;;13.13;6.35;;;9.10;99.90;;;;;;6156782;29;20055;-83
2022/11/12 06:37:58;;;;;;;17.65;6.47;;;9.10;99.90;;;;;;6156132;28;20047;-83
2022/11/12 06:41:00;;;;;;;14.50;6.10;;;9.20;99.90;;;;;;6156629;28;20059;-83
2022/11/12 06:44:05;;;;;;;13.43;4.85;;;9.20;99.90;;;;;;6157344;28;20560;-83
2022/11/12 06:47:07;;;;;;;13.02;5.85;;;9.20;99.90;;;;;;6157770;28;20043;-83
2022/11/12 06:50:09;;;;;;;15.30;6.13;;;9.10;99.90;;;;;;6157357;28;20051;-83
2022/11/12 06:53:10;;;;;;;13.68;5.72;;;9.00;99.90;;;;;;6157332;28;20394;-84
2022/11/12 06:56:13;;;;;;;14.40;5.50;;;9.10;99.90;;;;;;6157330;28;20054;-85
2022/11/12 06:59:16;;;;;;;14.02;6.15;;;9.10;99.90;;;;;;6156435;29;20070;-83
2022/11/12 07:02:18;;;;;;;17.90;6.32;;;9.20;99.90;;;;;;6181439;28;20493;-83
2022/11/12 07:05:19;;;;;;;17.67;6.25;;;9.20;99.90;;;;;;6181897;28;20061;-83
2022/11/12 07:08:21;;;;;;;14.82;5.50;;;9.30;99.90;;;;;;6180444;28;20046;-84
2022/11/12 07:11:23;;;;;;;18.73;6.88;;;9.40;99.90;;;;;;6180749;28;20428;-82
2022/11/12 07:14:26;;;;;;;17.48;6.60;;;9.40;99.90;;;;;;6181803;28;20050;-84
2022/11/12 07:17:27;;;;;;;25.70;8.30;;;9.50;99.90;;;;;;6178526;28;20043;-86
2022/11/12 07:20:29;;;;;;;14.20;6.15;;;9.60;99.90;;;;;;6180490;28;20393;-84
2022/11/12 07:23:32;;;;;;;30.70;8.35;;;9.70;99.90;;;;;;6184041;28;20055;-85
2022/11/12 07:26:34;;;;;;;12.10;6.72;;;9.70;99.90;;;;;;6183087;28;20047;-84
2022/11/12 07:29:37;;;;;;;16.25;6.28;;;9.70;99.90;;;;;;6174951;28;20058;-85
2022/11/12 07:32:39;;;;;;;13.55;6.25;;;9.60;99.90;;;;;;6158080;28;20055;-85
2022/11/12 07:35:41;;;;;;;20.60;6.85;;;9.50;99.90;;;;;;6157600;28;20051;-84
2022/11/12 07:38:43;;;;;;;20.50;9.95;;;9.40;99.90;;;;;;6157655;28;20062;-84
2022/11/12 07:41:45;;;;;;;19.27;6.80;;;9.50;99.90;;;;;;6159324;28;20575;-84
2022/11/12 07:44:48;;;;;;;14.43;6.28;;;9.50;99.90;;;;;;6157836;28;20051;-84
2022/11/12 07:47:49;;;;;;;14.07;6.25;;;9.50;99.90;;;;;;6187214;23;20051;-84
2022/11/12 07:50:51;;;;;;;16.35;7.18;;;9.50;99.90;;;;;;6182092;28;20059;-84
2022/11/12 07:53:55;;;;;;;19.35;6.90;;;9.50;99.90;;;;;;6183056;28;20061;-85
2022/11/12 07:56:57;;;;;;;16.55;7.70;;;9.50;99.90;;;;;;6181789;28;20492;-84
2022/11/12 07:59:59;;;;;;;16.27;8.40;;;9.50;99.90;;;;;;6156117;28;20054;-84
2022/11/12 08:03:01;;;;;;;14.57;5.82;;;9.70;99.90;;;;;;6158563;29;20059;-84
2022/11/12 08:06:04;;;;;;;15.80;6.80;;;9.70;99.90;;;;;;6156736;28;20051;-84
2022/11/12 08:09:07;;;;;;;17.30;6.97;;;9.80;99.90;;;;;;6155385;28;20059;-84
2022/11/12 08:12:09;;;;;;;25.88;9.18;;;9.90;99.90;;;;;;6157924;28;20182;-84
2022/11/12 08:15:12;;;;;;;15.07;6.15;;;9.90;99.90;;;;;;6157732;29;20063;-85
2022/11/12 08:18:14;;;;;;;16.88;6.25;;;9.80;99.90;;;;;;6155592;28;20058;-85
2022/11/12 08:21:17;;;;;;;16.85;8.07;;;9.80;99.90;;;;;;6155446;28;20074;-84
2022/11/12 08:24:19;;;;;;;14.05;7.22;;;9.90;99.90;;;;;;6157423;28;20051;-84
2022/11/12 08:27:21;;;;;;;13.05;6.20;;;9.90;99.90;;;;;;6155555;28;20541;-84
2022/11/12 08:30:24;;;;;;;18.70;7.45;;;10.00;99.90;;;;;;6138764;28;20055;-84
2022/11/12 08:33:26;;;;;;;18.05;6.80;;;10.00;99.90;;;;;;6159568;28;20087;-83
2022/11/12 08:36:28;;;;;;;12.60;6.15;;;10.00;99.90;;;;;;6169172;28;20047;-83
2022/11/12 08:39:30;;;;;;;10.43;5.57;;;10.00;99.90;;;;;;6169057;28;20051;-83
2022/11/12 08:42:32;;;;;;;11.35;5.60;;;10.00;99.90;;;;;;6156663;28;20051;-83
2022/11/12 08:45:38;;;;;;;15.27;5.93;;;10.20;99.90;;;;;;6154670;28;20047;-84
2022/11/12 08:48:40;;;;;;;10.00;4.47;;;10.20;99.90;;;;;;6155364;28;20044;-84
2022/11/12 08:51:42;;;;;;;8.63;4.50;;;10.20;99.90;;;;;;6153916;28;20051;-84
2022/11/12 08:54:43;;;;;;;8.35;4.05;;;10.20;99.90;;;;;;6154224;28;20047;-82
2022/11/12 08:57:45;;;;;;;11.93;5.22;;;10.20;99.90;;;;;;6154265;28;20421;-83
2022/11/12 09:00:49;;;;;;;7.75;3.65;;;10.20;99.90;;;;;;6156278;28;20062;-84
2022/11/12 09:03:51;;;;;;;7.40;4.03;;;10.20;99.90;;;;;;6170701;28;20051;-84
2022/11/12 09:06:53;;;;;;;8.20;4.47;;;10.20;99.90;;;;;;6155931;28;20048;-83
2022/11/12 09:09:54;;;;;;;14.30;4.13;;;10.20;99.90;;;;;;6155103;28;20532;-84
2022/11/12 09:12:56;;;;;;;9.35;4.10;;;10.10;99.90;;;;;;6155521;28;20043;-82
2022/11/12 09:16:04;;;;;;;14.43;5.03;;;10.10;99.90;;;;;;6156093;28;20134;-83
2022/11/12 09:19:06;;;;;;;7.18;4.03;;;10.10;99.90;;;;;;6156346;28;20122;-84
2022/11/12 09:22:08;;;;;;;7.97;3.83;;;10.20;99.90;;;;;;6162245;28;20047;-83
2022/11/12 09:25:10;;;;;;;9.05;3.75;;;10.10;99.90;;;;;;6163507;28;20043;-84
2022/11/12 09:28:14;;;;;;;10.43;3.47;;;10.20;99.90;;;;;;6158522;28;20600;-84
2022/11/12 09:31:17;;;;;;;15.70;5.00;;;10.20;99.90;;;;;;6160554;28;20059;-84
2022/11/12 09:34:18;;;;;;;8.18;4.65;;;10.30;99.90;;;;;;6170696;28;20059;-83
2022/11/12 09:37:20;;;;;;;12.35;5.55;;;10.30;99.90;;;;;;6180337;28;20051;-83
2022/11/12 09:40:25;;;;;;;19.98;5.65;;;10.40;99.90;;;;;;6179760;28;20062;-82
2022/11/12 09:43:31;;;;;;;14.73;5.05;;;10.30;99.90;;;;;;6184701;28;20135;-83
2022/11/12 09:46:43;;;;;;;9.13;4.97;;;10.20;99.90;;;;;;6184553;28;20059;-83
2022/11/12 09:49:49;;;;;;;13.38;5.30;;;10.20;99.90;;;;;;6184342;28;20050;-83
2022/11/12 09:53:00;;;;;;;14.52;5.63;;;10.30;99.90;;;;;;6184668;28;20051;-83
2022/11/12 09:56:07;;;;;;;11.88;5.32;;;10.40;99.90;;;;;;6181949;28;20062;-83
2022/11/12 09:59:12;;;;;;;14.73;7.10;;;10.50;99.90;;;;;;6181276;28;20054;-83
2022/11/12 10:02:26;;;;;;;15.90;6.95;;;10.60;99.90;;;;;;6176754;28;20058;-82
2022/11/12 10:05:34;;;;;;;11.52;5.68;;;10.70;99.90;;;;;;6177647;28;20053;-82
2022/11/12 10:08:41;;;;;;;15.27;8.18;;;10.70;99.90;;;;;;6179627;28;20042;-82
2022/11/12 10:19:13;;;;;;;23.90;11.23;;;11.00;99.90;;;;;;6179597;28;20537;-83
2022/11/12 10:22:33;;;;;;;21.00;9.73;;;11.00;99.90;;;;;;6180068;28;20527;-83
2022/11/12 10:25:35;;;;;;;49.58;15.48;;;11.10;99.90;;;;;;6181270;28;20059;-83
2022/11/12 10:28:43;;;;;;;77.28;23.33;;;11.20;99.90;;;;;;6180049;28;20417;-82
2022/11/12 10:31:45;;;;;;;27.33;11.50;;;11.20;99.90;;;;;;6173547;28;20047;-82
2022/11/12 10:34:48;;;;;;;17.85;10.45;;;11.20;99.90;;;;;;6163519;28;20055;-83
2022/11/12 10:37:54;;;;;;;22.10;11.75;;;11.20;99.90;;;;;;6156004;28;20047;-83
2022/11/12 10:40:56;;;;;;;21.02;11.18;;;11.30;99.90;;;;;;6156707;28;20174;-83
2022/11/12 10:43:59;;;;;;;22.15;11.07;;;11.40;99.90;;;;;;6155980;28;20046;-83
2022/11/12 10:47:22;;;;;;;22.85;11.88;;;11.40;99.90;;;;;;6156299;28;20078;-84
2022/11/12 10:50:31;;;;;;;21.42;10.25;;;11.30;99.90;;;;;;6156487;28;20051;-82
2022/11/12 10:53:34;;;;;;;29.30;10.60;;;11.30;99.90;;;;;;6157149;28;20505;-84
2022/11/12 10:56:36;;;;;;;22.60;11.38;;;11.30;99.90;;;;;;6157297;28;20054;-83
2022/11/12 10:59:38;;;;;;;23.85;10.70;;;11.30;99.90;;;;;;6155775;28;20051;-82
2022/11/12 11:02:49;;;;;;;20.08;10.50;;;11.30;99.90;;;;;;6163110;28;20058;-82
2022/11/12 11:05:54;;;;;;;19.70;10.02;;;11.40;99.90;;;;;;6179267;28;20066;-83
2022/11/12 11:09:15;;;;;;;16.95;9.73;;;11.40;99.90;;;;;;6179273;28;20057;-84
2022/11/12 11:12:25;;;;;;;19.50;9.65;;;11.30;99.90;;;;;;6179859;28;20069;-83
2022/11/12 11:15:26;;;;;;;18.42;9.27;;;11.40;99.90;;;;;;6182847;28;20389;-84
2022/11/12 11:18:30;;;;;;;19.63;10.13;;;11.40;99.90;;;;;;6181517;28;20054;-83
2022/11/12 11:21:56;;;;;;;18.00;8.88;;;11.40;99.90;;;;;;6180495;28;20077;-85
2022/11/12 11:25:12;;;;;;;20.42;9.57;;;11.30;99.90;;;;;;6181948;28;20058;-84
2022/11/12 11:28:24;;;;;;;19.98;9.45;;;11.30;99.90;;;;;;6178098;28;20042;-83
2022/11/12 11:31:34;;;;;;;17.08;8.98;;;11.30;99.90;;;;;;6179387;28;20047;-83
2022/11/12 11:34:48;;;;;;;20.88;10.45;;;11.30;99.90;;;;;;6164105;28;20051;-83
2022/11/12 11:38:05;;;;;;;16.48;9.07;;;11.40;99.90;;;;;;6156161;28;20048;-83
2022/11/12 11:41:29;;;;;;;19.13;9.88;;;11.30;99.90;;;;;;6156640;28;20047;-84
2022/11/12 11:44:40;;;;;;;22.77;9.93;;;11.30;99.90;;;;;;6157556;28;20444;-84
2022/11/12 11:47:52;;;;;;;20.38;9.82;;;11.20;99.90;;;;;;6156868;28;20054;-84
2022/11/12 11:51:01;;;;;;;21.65;9.85;;;11.30;99.90;;;;;;6158766;28;20061;-84
2022/11/12 11:54:24;;;;;;;23.42;10.48;;;11.20;99.90;;;;;;6160831;28;20063;-85
2022/11/12 11:57:29;;;;;;;20.27;11.32;;;11.10;99.90;;;;;;6162313;28;20049;-84
2022/11/12 12:00:42;;;;;;;20.52;10.20;;;11.10;99.90;;;;;;6161931;28;20067;-84
2022/11/12 12:04:06;;;;;;;16.95;9.65;;;11.00;99.90;;;;;;6169866;28;20051;-85
2022/11/12 12:07:18;;;;;;;18.35;9.50;;;10.80;99.90;;;;;;6157809;28;20055;-84
2022/11/12 12:10:25;;;;;;;16.77;9.45;;;10.80;99.90;;;;;;6156252;28;20062;-84
2022/11/12 12:13:38;;;;;;;20.30;9.65;;;10.80;99.90;;;;;;6157226;28;20065;-83
2022/11/12 12:16:52;;;;;;;14.30;8.75;;;10.90;99.90;;;;;;6157393;28;20058;-84
2022/11/12 12:20:02;;;;;;;17.23;8.75;;;11.00;99.90;;;;;;6156974;28;20047;-84
2022/11/12 12:23:10;;;;;;;15.27;8.45;;;10.90;99.90;;;;;;6157595;28;20055;-85
2022/11/12 12:26:17;;;;;;;19.23;9.60;;;10.90;99.90;;;;;;6156378;28;20058;-84
2022/11/12 12:29:24;;;;;;;18.67;8.93;;;10.90;99.90;;;;;;6155991;28;20424;-83
2022/11/12 12:32:29;;;;;;;28.07;9.50;;;11.00;99.90;;;;;;6160158;28;20054;-83
2022/11/12 12:35:33;;;;;;;24.08;10.82;;;11.00;99.90;;;;;;6158305;28;20047;-83
2022/11/12 12:38:42;;;;;;;18.63;9.43;;;10.90;99.90;;;;;;6151918;28;20405;-84
2022/11/12 12:41:53;;;;;;;23.65;10.43;;;10.70;99.90;;;;;;6151946;28;20047;-84
2022/11/12 12:45:03;;;;;;;20.38;10.88;;;10.60;99.90;;;;;;6153147;28;20054;-84
2022/11/12 12:48:11;;;;;;;27.30;13.55;;;10.70;99.90;;;;;;6152920;28;20079;-84
2022/11/12 12:51:13;;;;;;;23.20;12.30;;;10.50;99.90;;;;;;6153945;29;20051;-84
2022/11/12 12:54:51;;;;;;;25.20;13.00;;;10.60;99.90;;;;;;6154655;28;20106;-84
2022/11/12 12:57:59;;;;;;;27.98;12.27;;;10.40;99.90;;;;;;6149106;28;20047;-84
2022/11/12 13:01:03;;;;;;;24.48;11.40;;;10.30;99.90;;;;;;6155898;28;20051;-84
2022/11/12 13:04:07;;;;;;;23.80;11.32;;;10.30;99.90;;;;;;6161422;28;20057;-84
2022/11/12 13:07:09;;;;;;;26.27;11.75;;;10.40;99.90;;;;;;6179344;28;20057;-84
2022/11/12 13:10:53;;;;;;;23.95;11.55;;;10.40;99.90;;;;;;6176622;28;20050;-84
2022/11/12 13:13:56;;;;;;;22.85;11.90;;;10.40;99.90;;;;;;6177164;28;20058;-83
2022/11/12 13:16:59;;;;;;;21.52;11.38;;;10.50;99.90;;;;;;6175365;28;20508;-83
2022/11/12 13:20:36;;;;;;;26.20;12.35;;;10.50;99.90;;;;;;6173069;28;20521;-82
2022/11/12 13:27:06;;;;;;;23.95;12.77;;;10.80;99.90;;;;;;6178242;28;20496;-84
2022/11/12 13:30:10;;;;;;;26.35;11.88;;;10.80;99.90;;;;;;6175968;28;20050;-83
2022/11/12 13:33:23;;;;;;;21.33;10.00;;;10.90;99.90;;;;;;6167748;28;20123;-83
2022/11/12 13:36:29;;;;;;;20.33;11.32;;;10.90;99.90;;;;;;6165214;28;20063;-83
2022/11/12 13:39:35;;;;;;;20.83;11.35;;;10.90;99.90;;;;;;6151840;28;20044;-83
2022/11/12 13:42:48;;;;;;;28.95;13.10;;;10.80;99.90;;;;;;6153969;29;20117;-84
2022/11/12 13:45:56;;;;;;;18.73;11.23;;;10.70;99.90;;;;;;6152186;28;20051;-83
2022/11/12 13:49:01;;;;;;;19.77;9.60;;;10.60;99.90;;;;;;6151948;28;20044;-83
2022/11/12 13:52:05;;;;;;;18.73;9.77;;;10.50;99.90;;;;;;6152042;28;20158;-83
2022/11/12 13:55:13;;;;;;;15.13;8.73;;;10.50;99.90;;;;;;6155289;28;20051;-83
2022/11/12 13:58:20;;;;;;;26.58;11.02;;;10.50;99.90;;;;;;6153932;28;20050;-82
2022/11/12 14:01:32;;;;;;;16.55;9.77;;;10.50;99.90;;;;;;6155065;28;20067;-82
2022/11/12 14:04:35;;;;;;;21.20;13.27;;;10.50;99.90;;;;;;6162655;28;20047;-83
2022/11/12 14:07:46;;;;;;;17.60;8.30;;;10.50;99.90;;;;;;6150745;28;20059;-85
2022/11/12 14:11:04;;;;;;;20.08;10.70;;;10.60;99.90;;;;;;6151212;28;20082;-83
2022/11/12 14:14:13;;;;;;;17.85;9.90;;;10.50;99.90;;;;;;6151481;28;20047;-84
2022/11/12 14:17:25;;;;;;;15.50;8.80;;;10.60;99.90;;;;;;6151343;28;20051;-82
2022/11/12 14:20:30;;;;;;;15.02;9.88;;;10.70;99.90;;;;;;6151378;28;20054;-83
2022/11/12 14:23:31;;;;;;;19.33;9.20;;;10.60;99.90;;;;;;6152198;28;20078;-83
2022/11/12 14:26:35;;;;;;;19.52;10.25;;;10.60;99.90;;;;;;6151791;28;20051;-82
2022/11/12 14:29:36;;;;;;;13.73;8.65;;;10.60;99.90;;;;;;6155441;28;20417;-83
2022/11/12 14:32:41;;;;;;;18.67;10.18;;;10.60;99.90;;;;;;6162716;28;20047;-83
2022/11/12 14:35:43;;;;;;;15.25;8.48;;;10.70;99.90;;;;;;6155332;28;20047;-83
2022/11/12 14:38:48;;;;;;;14.57;8.75;;;10.80;99.90;;;;;;6152693;28;20497;-84
2022/11/12 14:41:50;;;;;;;19.52;8.85;;;10.90;99.90;;;;;;6155402;28;20047;-83
2022/11/12 14:44:53;;;;;;;15.85;9.35;;;10.80;99.90;;;;;;6154452;28;20195;-84
2022/11/12 14:47:57;;;;;;;15.32;8.65;;;10.60;99.90;;;;;;6154980;28;20675;-85
2022/11/12 14:51:03;;;;;;;15.75;8.90;;;10.50;99.90;;;;;;6155384;28;20051;-83
2022/11/12 14:54:08;;;;;;;17.38;9.35;;;10.40;99.90;;;;;;6155650;28;20050;-83
2022/11/12 14:57:17;;;;;;;17.55;10.23;;;10.40;99.90;;;;;;6177240;28;20421;-83
2022/11/12 15:00:36;;;;;;;16.10;8.85;;;10.30;99.90;;;;;;6177425;28;20509;-83
2022/11/12 15:03:39;;;;;;;13.88;9.32;;;10.20;99.90;;;;;;6168659;28;20086;-83
2022/11/12 15:06:41;;;;;;;17.42;9.70;;;10.30;99.90;;;;;;6177805;28;20066;-84
2022/11/12 15:09:43;;;;;;;48.38;20.52;;;10.50;99.90;;;;;;6176776;28;20420;-85
2022/11/12 15:12:45;;;;;;;14.65;7.70;;;10.50;99.90;;;;;;6177689;28;20122;-83
2022/11/12 15:15:52;;;;;;;15.52;8.73;;;10.40;99.90;;;;;;6177324;28;20053;-83
2022/11/12 15:19:19;;;;;;;19.02;8.25;;;10.30;99.90;;;;;;6178683;28;20057;-83
2022/11/12 15:22:22;;;;;;;13.63;8.35;;;10.20;99.90;;;;;;6178684;28;20120;-83
2022/11/12 15:25:26;;;;;;;16.80;8.82;;;10.20;99.90;;;;;;6178017;28;20062;-83
2022/11/12 15:28:28;;;;;;;13.75;7.97;;;10.10;99.90;;;;;;6178494;28;20043;-83
2022/11/12 15:31:30;;;;;;;15.48;8.63;;;10.20;99.90;;;;;;6176479;28;20057;-83
2022/11/12 15:34:49;;;;;;;15.00;10.23;;;10.20;99.90;;;;;;6171563;28;20058;-83
2022/11/12 15:37:50;;;;;;;;;;;10.20;99.90;;;;;;6171687;28;20051;-83
2022/11/12 15:40:54;;;;;;;16.42;8.98;;;10.30;99.90;;;;;;6152307;28;19922;-83
2022/11/12 15:43:56;;;;;;;14.35;9.30;;;10.10;99.90;;;;;;6153724;28;20058;-83
2022/11/12 15:46:58;;;;;;;23.88;9.93;;;10.00;99.90;;;;;;6152465;29;20051;-83
2022/11/12 15:50:14;;;;;;;15.07;8.80;;;9.90;99.90;;;;;;6153099;28;20047;-82
2022/11/12 15:53:15;;;;;;;17.55;10.00;;;9.80;99.90;;;;;;6155106;28;20047;-84
2022/11/12 15:56:20;;;;;;;21.55;12.38;;;9.90;99.90;;;;;;6153677;28;20051;-83
2022/11/12 15:59:45;;;;;;;18.60;10.40;;;10.00;99.90;;;;;;6154929;28;20099;-83
2022/11/12 16:07:30;;;;;;;13.88;8.90;;;10.20;99.90;;;;;;6128975;29;20067;-84
2022/11/12 16:14:43;;;;;;;17.30;10.25;;;10.40;99.90;;;;;;6096235;29;20060;-84
2022/11/12 16:22:03;;;;;;;17.90;10.95;;;10.30;99.90;;;;;;6142763;29;20083;-84
2022/11/12 16:25:09;;;;;;;20.60;11.00;;;10.40;99.90;;;;;;6155945;28;20062;-84
2022/11/12 16:28:23;;;;;;;23.17;11.57;;;10.40;99.90;;;;;;6152741;28;20054;-85
2022/11/12 16:31:48;;;;;;;21.02;10.20;;;10.30;99.90;;;;;;6149247;28;20182;-85
2022/11/12 16:34:50;;;;;;;20.38;10.43;;;10.60;99.90;;;;;;6137418;28;20454;-85
2022/11/12 16:37:59;;;;;;;22.08;11.65;;;10.70;99.90;;;;;;6126567;28;20051;-85